메인 페이지
METAR-TAF:

METAR-TAF

공항 :

통가타푸 섬, 통가

푸아모투 국제공항

위도: 21-14S, 경도: 175-09W, 고도: 38m

현재 날씨관측

예보는 27분 전, 07:00시(UTC)에 발표되었습니다.
무풍
온도 26°C
습도 89%
기압 1012 hPa
시정 10km 이상
고도 1000ft 상공 구름 조금
고도 1800ft 상공 구름 조금, 타워링 적운.
고도 30000ft 상공 구름 많음

METAR: NFTF 250700Z 00000KT 9999 FEW010 FEW018TCU BKN300 26/24 Q1012

시각: 20:27 (07:27 UTC)

예보

예보는 1 시간 59분 전, 05:28시(UTC)에 발표되었습니다.
예보 대상 시간: 25일 06시부터 26일 06시까지 (UTC)
북동7kt
시정 10km 이상
고도 1000ft 상공 구름 조금
고도 1700ft 상공 구름 보통
고도 4000ft 상공 구름 보통
약한소나기
확률 40% :
일시적
25일 06시부터 25일 15시까지 (UTC)
시정: 3000m
고도 1000ft 상공 구름 많음
고도 1500ft 상공 구름 많음
소나기
확률 40% :
일시적
25일 15시부터 26일 06시까지 (UTC)
북북동10kt, 순간 최대 풍속 20kt
시정: 1500m
고도 1500ft 상공 구름 많음
고도 1800ft 상공 구름 조금, 적란운.
뇌우, 비

TAF: NFTF 250528Z 2506/2606 04007KT 9999 -SHRA FEW010 SCT017 SCT040 PROB40 TEMPO 2506/2515 3000 SHRA BKN010 BKN015 PROB40 TEMPO 2515/2606 03010G20KT 1500 TSRA BKN015 FEW018CB

4,000개 이상의 공항 관측 자료 및 예보 (METAR 및 TAF 보고).

지도상에서 검색 가능한 기상관측소가 노란 점과 빨간 점으로 표시되어 있습니다.

기상관측소 명을 보려면 표시 위로 마우스를 이동하세요.

날씨 관측과 예보를 보려면 클릭하세요.

지도 변경 : 확대하려면 엑스 표시가 있는 녹색 버튼, 축소하려면 빼기 표시가 있는 녹색 버튼, 다음 페이지의 지도를 보려면 녹색 화살표를 클릭하세요.


METAR-TAF: